sensor_id;sensor_type;location;lat;lon;timestamp;P1;durP1;ratioP1;P2;durP2;ratioP2
61322;SDS011;47203;48.428;11.974;2023-04-24T00:00:56;3.60;;;1.08;;
61322;SDS011;47203;48.428;11.974;2023-04-24T00:03:02;1.58;;;1.20;;
61322;SDS011;47203;48.428;11.974;2023-04-24T00:05:07;2.13;;;1.27;;
61322;SDS011;47203;48.428;11.974;2023-04-24T00:07:13;2.03;;;1.27;;
61322;SDS011;47203;48.428;11.974;2023-04-24T00:09:18;3.85;;;1.52;;
61322;SDS011;47203;48.428;11.974;2023-04-24T00:11:25;1.42;;;0.98;;
61322;SDS011;47203;48.428;11.974;2023-04-24T00:13:30;1.90;;;1.10;;
61322;SDS011;47203;48.428;11.974;2023-04-24T00:15:35;2.50;;;1.10;;
61322;SDS011;47203;48.428;11.974;2023-04-24T00:17:40;2.08;;;1.35;;
61322;SDS011;47203;48.428;11.974;2023-04-24T00:19:44;2.00;;;1.50;;
61322;SDS011;47203;48.428;11.974;2023-04-24T00:21:49;2.47;;;1.48;;
61322;SDS011;47203;48.428;11.974;2023-04-24T00:23:55;1.40;;;1.15;;
61322;SDS011;47203;48.428;11.974;2023-04-24T00:26:00;2.60;;;1.35;;
61322;SDS011;47203;48.428;11.974;2023-04-24T00:28:07;3.40;;;1.50;;
61322;SDS011;47203;48.428;11.974;2023-04-24T00:30:12;2.15;;;1.17;;
61322;SDS011;47203;48.428;11.974;2023-04-24T00:32:17;2.30;;;1.30;;
61322;SDS011;47203;48.428;11.974;2023-04-24T00:34:22;2.40;;;1.30;;
61322;SDS011;47203;48.428;11.974;2023-04-24T00:36:27;1.45;;;1.13;;
61322;SDS011;47203;48.428;11.974;2023-04-24T00:38:32;1.88;;;1.20;;
61322;SDS011;47203;48.428;11.974;2023-04-24T00:40:38;2.20;;;1.20;;
61322;SDS011;47203;48.428;11.974;2023-04-24T00:42:43;3.10;;;1.30;;
61322;SDS011;47203;48.428;11.974;2023-04-24T00:44:50;2.13;;;1.10;;
61322;SDS011;47203;48.428;11.974;2023-04-24T00:46:55;2.25;;;1.30;;
61322;SDS011;47203;48.428;11.974;2023-04-24T00:49:01;2.47;;;1.55;;
61322;SDS011;47203;48.428;11.974;2023-04-24T00:51:07;1.45;;;1.00;;
61322;SDS011;47203;48.428;11.974;2023-04-24T00:53:12;4.13;;;1.17;;
61322;SDS011;47203;48.428;11.974;2023-04-24T00:55:17;3.47;;;1.80;;
61322;SDS011;47203;48.428;11.974;2023-04-24T00:57:22;2.00;;;1.10;;
61322;SDS011;47203;48.428;11.974;2023-04-24T00:59:26;1.80;;;0.98;;
61322;SDS011;47203;48.428;11.974;2023-04-24T01:01:34;2.20;;;1.02;;
61322;SDS011;47203;48.428;11.974;2023-04-24T01:03:43;2.25;;;1.17;;
61322;SDS011;47203;48.428;11.974;2023-04-24T01:05:48;0.90;;;0.82;;
61322;SDS011;47203;48.428;11.974;2023-04-24T01:07:53;1.17;;;0.93;;
61322;SDS011;47203;48.428;11.974;2023-04-24T01:09:59;1.40;;;1.00;;
61322;SDS011;47203;48.428;11.974;2023-04-24T01:12:04;2.55;;;1.23;;
61322;SDS011;47203;48.428;11.974;2023-04-24T01:14:11;1.77;;;1.08;;
61322;SDS011;47203;48.428;11.974;2023-04-24T01:16:16;1.35;;;0.90;;
61322;SDS011;47203;48.428;11.974;2023-04-24T01:18:25;1.90;;;1.02;;
61322;SDS011;47203;48.428;11.974;2023-04-24T01:20:29;2.92;;;1.45;;
61322;SDS011;47203;48.428;11.974;2023-04-24T01:22:37;2.58;;;1.13;;
61322;SDS011;47203;48.428;11.974;2023-04-24T01:24:42;1.83;;;1.08;;
61322;SDS011;47203;48.428;11.974;2023-04-24T01:26:47;1.88;;;0.90;;
61322;SDS011;47203;48.428;11.974;2023-04-24T01:28:53;1.88;;;1.08;;
61322;SDS011;47203;48.428;11.974;2023-04-24T01:30:58;2.50;;;1.17;;
61322;SDS011;47203;48.428;11.974;2023-04-24T01:33:03;1.73;;;0.98;;
61322;SDS011;47203;48.428;11.974;2023-04-24T01:35:08;2.65;;;1.35;;
61322;SDS011;47203;48.428;11.974;2023-04-24T01:37:13;1.40;;;1.00;;
61322;SDS011;47203;48.428;11.974;2023-04-24T01:39:21;2.53;;;0.98;;
61322;SDS011;47203;48.428;11.974;2023-04-24T01:41:27;3.58;;;1.00;;
61322;SDS011;47203;48.428;11.974;2023-04-24T01:43:33;1.85;;;1.02;;
61322;SDS011;47203;48.428;11.974;2023-04-24T01:45:38;3.88;;;0.82;;
61322;SDS011;47203;48.428;11.974;2023-04-24T01:47:43;3.20;;;1.20;;
61322;SDS011;47203;48.428;11.974;2023-04-24T01:49:51;1.73;;;1.10;;
61322;SDS011;47203;48.428;11.974;2023-04-24T01:51:56;1.52;;;0.75;;
61322;SDS011;47203;48.428;11.974;2023-04-24T01:54:04;1.52;;;0.85;;
61322;SDS011;47203;48.428;11.974;2023-04-24T01:56:12;1.15;;;0.90;;
61322;SDS011;47203;48.428;11.974;2023-04-24T01:58:18;1.70;;;0.98;;
61322;SDS011;47203;48.428;11.974;2023-04-24T02:00:23;2.17;;;1.08;;
61322;SDS011;47203;48.428;11.974;2023-04-24T02:02:28;1.20;;;0.75;;
61322;SDS011;47203;48.428;11.974;2023-04-24T02:04:33;1.35;;;0.93;;
61322;SDS011;47203;48.428;11.974;2023-04-24T02:06:38;1.15;;;0.82;;
61322;SDS011;47203;48.428;11.974;2023-04-24T02:08:43;3.10;;;1.13;;
61322;SDS011;47203;48.428;11.974;2023-04-24T02:10:48;2.13;;;1.00;;
61322;SDS011;47203;48.428;11.974;2023-04-24T02:12:55;1.30;;;0.90;;
61322;SDS011;47203;48.428;11.974;2023-04-24T02:15:01;1.08;;;0.80;;
61322;SDS011;47203;48.428;11.974;2023-04-24T02:17:06;2.50;;;0.98;;
61322;SDS011;47203;48.428;11.974;2023-04-24T02:19:10;1.83;;;1.08;;
61322;SDS011;47203;48.428;11.974;2023-04-24T02:21:15;1.77;;;0.95;;
61322;SDS011;47203;48.428;11.974;2023-04-24T02:23:20;1.08;;;0.77;;
61322;SDS011;47203;48.428;11.974;2023-04-24T02:25:25;1.80;;;1.13;;
61322;SDS011;47203;48.428;11.974;2023-04-24T02:27:30;1.75;;;1.00;;
61322;SDS011;47203;48.428;11.974;2023-04-24T02:29:37;2.78;;;1.00;;
61322;SDS011;47203;48.428;11.974;2023-04-24T02:31:42;1.63;;;0.77;;
61322;SDS011;47203;48.428;11.974;2023-04-24T02:33:48;0.77;;;0.65;;
61322;SDS011;47203;48.428;11.974;2023-04-24T02:35:53;1.02;;;0.68;;
61322;SDS011;47203;48.428;11.974;2023-04-24T02:37:58;1.20;;;0.70;;
61322;SDS011;47203;48.428;11.974;2023-04-24T02:40:04;0.45;;;0.45;;
61322;SDS011;47203;48.428;11.974;2023-04-24T02:42:09;0.70;;;0.60;;
61322;SDS011;47203;48.428;11.974;2023-04-24T02:44:14;0.70;;;0.50;;
61322;SDS011;47203;48.428;11.974;2023-04-24T02:46:22;1.08;;;0.45;;
61322;SDS011;47203;48.428;11.974;2023-04-24T02:48:27;3.20;;;0.70;;
61322;SDS011;47203;48.428;11.974;2023-04-24T02:50:32;0.82;;;0.47;;
61322;SDS011;47203;48.428;11.974;2023-04-24T02:52:36;0.95;;;0.55;;
61322;SDS011;47203;48.428;11.974;2023-04-24T02:54:41;1.65;;;0.73;;
61322;SDS011;47203;48.428;11.974;2023-04-24T02:56:46;0.93;;;0.50;;
61322;SDS011;47203;48.428;11.974;2023-04-24T02:58:51;0.65;;;0.60;;
61322;SDS011;47203;48.428;11.974;2023-04-24T03:00:56;0.70;;;0.50;;
61322;SDS011;47203;48.428;11.974;2023-04-24T03:03:03;0.63;;;0.60;;
61322;SDS011;47203;48.428;11.974;2023-04-24T03:05:08;0.85;;;0.50;;
61322;SDS011;47203;48.428;11.974;2023-04-24T03:07:13;0.63;;;0.35;;
61322;SDS011;47203;48.428;11.974;2023-04-24T03:09:18;1.58;;;0.60;;
61322;SDS011;47203;48.428;11.974;2023-04-24T03:11:23;2.75;;;0.70;;
61322;SDS011;47203;48.428;11.974;2023-04-24T03:13:28;0.50;;;0.50;;
61322;SDS011;47203;48.428;11.974;2023-04-24T03:15:33;1.10;;;0.57;;
61322;SDS011;47203;48.428;11.974;2023-04-24T03:17:38;0.73;;;0.52;;
61322;SDS011;47203;48.428;11.974;2023-04-24T03:19:45;1.05;;;0.55;;
61322;SDS011;47203;48.428;11.974;2023-04-24T03:21:50;0.63;;;0.40;;
61322;SDS011;47203;48.428;11.974;2023-04-24T03:23:55;2.83;;;0.70;;
61322;SDS011;47203;48.428;11.974;2023-04-24T03:26:00;1.85;;;0.63;;
61322;SDS011;47203;48.428;11.974;2023-04-24T03:28:06;0.45;;;0.40;;
61322;SDS011;47203;48.428;11.974;2023-04-24T03:30:17;0.93;;;0.50;;
61322;SDS011;47203;48.428;11.974;2023-04-24T03:32:28;0.82;;;0.38;;
61322;SDS011;47203;48.428;11.974;2023-04-24T03:34:34;2.03;;;0.63;;
61322;SDS011;47203;48.428;11.974;2023-04-24T03:36:43;1.00;;;0.50;;
61322;SDS011;47203;48.428;11.974;2023-04-24T03:38:49;0.85;;;0.57;;
61322;SDS011;47203;48.428;11.974;2023-04-24T03:40:58;0.50;;;0.30;;
61322;SDS011;47203;48.428;11.974;2023-04-24T03:43:10;1.63;;;0.55;;
61322;SDS011;47203;48.428;11.974;2023-04-24T03:45:15;1.75;;;0.85;;
61322;SDS011;47203;48.428;11.974;2023-04-24T03:47:23;1.50;;;0.40;;
61322;SDS011;47203;48.428;11.974;2023-04-24T03:49:32;1.25;;;0.52;;
61322;SDS011;47203;48.428;11.974;2023-04-24T03:51:36;1.15;;;0.50;;
61322;SDS011;47203;48.428;11.974;2023-04-24T03:53:53;1.30;;;0.90;;
61322;SDS011;47203;48.428;11.974;2023-04-24T03:56:01;1.42;;;0.70;;
61322;SDS011;47203;48.428;11.974;2023-04-24T03:58:07;0.85;;;0.50;;
61322;SDS011;47203;48.428;11.974;2023-04-24T04:00:13;0.80;;;0.50;;
61322;SDS011;47203;48.428;11.974;2023-04-24T04:02:22;0.85;;;0.40;;
61322;SDS011;47203;48.428;11.974;2023-04-24T04:04:27;0.82;;;0.57;;
61322;SDS011;47203;48.428;11.974;2023-04-24T04:06:34;0.77;;;0.60;;
61322;SDS011;47203;48.428;11.974;2023-04-24T04:08:39;1.15;;;0.75;;
61322;SDS011;47203;48.428;11.974;2023-04-24T04:10:46;1.90;;;0.65;;
61322;SDS011;47203;48.428;11.974;2023-04-24T04:12:51;0.98;;;0.70;;
61322;SDS011;47203;48.428;11.974;2023-04-24T04:14:57;1.02;;;0.60;;
61322;SDS011;47203;48.428;11.974;2023-04-24T04:17:02;1.02;;;0.43;;
61322;SDS011;47203;48.428;11.974;2023-04-24T04:19:07;1.27;;;0.55;;
61322;SDS011;47203;48.428;11.974;2023-04-24T04:21:12;1.13;;;0.60;;
61322;SDS011;47203;48.428;11.974;2023-04-24T04:23:17;0.93;;;0.55;;
61322;SDS011;47203;48.428;11.974;2023-04-24T04:25:33;0.82;;;0.60;;
61322;SDS011;47203;48.428;11.974;2023-04-24T04:27:40;1.02;;;0.50;;
61322;SDS011;47203;48.428;11.974;2023-04-24T04:29:47;0.77;;;0.32;;
61322;SDS011;47203;48.428;11.974;2023-04-24T04:31:52;1.17;;;0.52;;
61322;SDS011;47203;48.428;11.974;2023-04-24T04:33:57;1.13;;;0.65;;
61322;SDS011;47203;48.428;11.974;2023-04-24T04:36:05;0.80;;;0.50;;
61322;SDS011;47203;48.428;11.974;2023-04-24T04:38:15;1.60;;;0.40;;
61322;SDS011;47203;48.428;11.974;2023-04-24T04:40:28;0.93;;;0.60;;
61322;SDS011;47203;48.428;11.974;2023-04-24T04:42:37;1.00;;;0.80;;
61322;SDS011;47203;48.428;11.974;2023-04-24T04:44:47;1.38;;;0.57;;
61322;SDS011;47203;48.428;11.974;2023-04-24T04:46:56;0.50;;;0.32;;
61322;SDS011;47203;48.428;11.974;2023-04-24T04:49:04;0.43;;;0.32;;
61322;SDS011;47203;48.428;11.974;2023-04-24T04:51:10;0.70;;;0.40;;
61322;SDS011;47203;48.428;11.974;2023-04-24T04:53:15;0.77;;;0.57;;
61322;SDS011;47203;48.428;11.974;2023-04-24T04:55:20;0.95;;;0.47;;
61322;SDS011;47203;48.428;11.974;2023-04-24T04:57:47;0.30;;;0.30;;
61322;SDS011;47203;48.428;11.974;2023-04-24T04:59:55;1.42;;;0.60;;
61322;SDS011;47203;48.428;11.974;2023-04-24T05:02:13;1.02;;;0.60;;
61322;SDS011;47203;48.428;11.974;2023-04-24T05:04:18;2.15;;;0.73;;
61322;SDS011;47203;48.428;11.974;2023-04-24T05:06:23;1.65;;;0.45;;
61322;SDS011;47203;48.428;11.974;2023-04-24T05:08:29;0.95;;;0.32;;
61322;SDS011;47203;48.428;11.974;2023-04-24T05:10:34;0.85;;;0.47;;
61322;SDS011;47203;48.428;11.974;2023-04-24T05:12:39;1.17;;;0.63;;
61322;SDS011;47203;48.428;11.974;2023-04-24T05:14:46;0.50;;;0.40;;
61322;SDS011;47203;48.428;11.974;2023-04-24T05:16:54;2.30;;;0.80;;
61322;SDS011;47203;48.428;11.974;2023-04-24T05:19:00;4.35;;;1.05;;
61322;SDS011;47203;48.428;11.974;2023-04-24T05:21:10;1.35;;;0.57;;
61322;SDS011;47203;48.428;11.974;2023-04-24T05:23:17;0.57;;;0.50;;
61322;SDS011;47203;48.428;11.974;2023-04-24T05:25:26;1.98;;;0.60;;
61322;SDS011;47203;48.428;11.974;2023-04-24T05:27:38;0.90;;;0.50;;
61322;SDS011;47203;48.428;11.974;2023-04-24T05:29:48;2.78;;;0.68;;
61322;SDS011;47203;48.428;11.974;2023-04-24T05:31:56;2.33;;;0.70;;
61322;SDS011;47203;48.428;11.974;2023-04-24T05:34:03;1.50;;;0.90;;
61322;SDS011;47203;48.428;11.974;2023-04-24T05:36:09;1.35;;;0.88;;
61322;SDS011;47203;48.428;11.974;2023-04-24T05:38:15;2.30;;;0.70;;
61322;SDS011;47203;48.428;11.974;2023-04-24T05:40:21;0.95;;;0.70;;
61322;SDS011;47203;48.428;11.974;2023-04-24T05:42:26;1.55;;;0.90;;
61322;SDS011;47203;48.428;11.974;2023-04-24T05:44:31;2.35;;;1.10;;
61322;SDS011;47203;48.428;11.974;2023-04-24T05:46:36;2.28;;;0.60;;
61322;SDS011;47203;48.428;11.974;2023-04-24T05:48:46;0.93;;;0.60;;
61322;SDS011;47203;48.428;11.974;2023-04-24T05:50:50;0.63;;;0.52;;
61322;SDS011;47203;48.428;11.974;2023-04-24T05:52:57;1.30;;;0.63;;
61322;SDS011;47203;48.428;11.974;2023-04-24T05:55:07;2.10;;;0.52;;
61322;SDS011;47203;48.428;11.974;2023-04-24T05:57:14;1.75;;;0.50;;
61322;SDS011;47203;48.428;11.974;2023-04-24T05:59:28;1.98;;;0.93;;
61322;SDS011;47203;48.428;11.974;2023-04-24T06:01:32;3.35;;;1.08;;
61322;SDS011;47203;48.428;11.974;2023-04-24T06:03:50;2.80;;;0.90;;
61322;SDS011;47203;48.428;11.974;2023-04-24T06:05:55;1.98;;;0.68;;
61322;SDS011;47203;48.428;11.974;2023-04-24T06:08:00;0.90;;;0.63;;
61322;SDS011;47203;48.428;11.974;2023-04-24T06:10:09;0.85;;;0.40;;
61322;SDS011;47203;48.428;11.974;2023-04-24T06:12:17;2.20;;;0.75;;
61322;SDS011;47203;48.428;11.974;2023-04-24T06:14:45;2.50;;;0.63;;
61322;SDS011;47203;48.428;11.974;2023-04-24T06:16:57;1.47;;;0.80;;
61322;SDS011;47203;48.428;11.974;2023-04-24T06:19:11;1.65;;;0.70;;
61322;SDS011;47203;48.428;11.974;2023-04-24T06:21:16;2.38;;;0.63;;
61322;SDS011;47203;48.428;11.974;2023-04-24T06:23:21;1.40;;;0.70;;
61322;SDS011;47203;48.428;11.974;2023-04-24T06:25:27;1.88;;;0.52;;
61322;SDS011;47203;48.428;11.974;2023-04-24T06:27:33;2.05;;;0.50;;
61322;SDS011;47203;48.428;11.974;2023-04-24T06:29:37;1.40;;;0.60;;
61322;SDS011;47203;48.428;11.974;2023-04-24T06:31:42;0.90;;;0.70;;
61322;SDS011;47203;48.428;11.974;2023-04-24T06:33:47;0.82;;;0.47;;
61322;SDS011;47203;48.428;11.974;2023-04-24T06:35:55;1.55;;;0.55;;
61322;SDS011;47203;48.428;11.974;2023-04-24T06:38:00;3.20;;;0.60;;
61322;SDS011;47203;48.428;11.974;2023-04-24T06:40:07;3.60;;;0.80;;
61322;SDS011;47203;48.428;11.974;2023-04-24T06:42:12;1.60;;;0.75;;
61322;SDS011;47203;48.428;11.974;2023-04-24T06:44:18;1.63;;;0.60;;
61322;SDS011;47203;48.428;11.974;2023-04-24T06:46:22;2.58;;;0.80;;
61322;SDS011;47203;48.428;11.974;2023-04-24T06:48:29;1.13;;;0.70;;
61322;SDS011;47203;48.428;11.974;2023-04-24T06:50:34;2.88;;;1.00;;
61322;SDS011;47203;48.428;11.974;2023-04-24T06:52:41;1.88;;;0.95;;
61322;SDS011;47203;48.428;11.974;2023-04-24T06:54:46;2.45;;;1.08;;
61322;SDS011;47203;48.428;11.974;2023-04-24T06:56:51;1.77;;;0.80;;
61322;SDS011;47203;48.428;11.974;2023-04-24T06:58:56;2.65;;;1.70;;
61322;SDS011;47203;48.428;11.974;2023-04-24T07:01:01;1.33;;;0.80;;
61322;SDS011;47203;48.428;11.974;2023-04-24T07:03:06;2.05;;;0.95;;
61322;SDS011;47203;48.428;11.974;2023-04-24T07:05:11;2.83;;;1.20;;
61322;SDS011;47203;48.428;11.974;2023-04-24T07:07:17;2.20;;;0.90;;
61322;SDS011;47203;48.428;11.974;2023-04-24T07:09:28;2.05;;;0.73;;
61322;SDS011;47203;48.428;11.974;2023-04-24T07:11:33;3.38;;;1.02;;
61322;SDS011;47203;48.428;11.974;2023-04-24T07:13:40;2.78;;;1.25;;
61322;SDS011;47203;48.428;11.974;2023-04-24T07:15:45;1.90;;;0.70;;
61322;SDS011;47203;48.428;11.974;2023-04-24T07:17:52;2.80;;;1.10;;
61322;SDS011;47203;48.428;11.974;2023-04-24T07:19:57;1.95;;;0.80;;
61322;SDS011;47203;48.428;11.974;2023-04-24T07:22:02;1.65;;;0.85;;
61322;SDS011;47203;48.428;11.974;2023-04-24T07:24:07;1.27;;;0.60;;
61322;SDS011;47203;48.428;11.974;2023-04-24T07:26:17;0.82;;;0.63;;
61322;SDS011;47203;48.428;11.974;2023-04-24T07:28:22;3.33;;;1.45;;
61322;SDS011;47203;48.428;11.974;2023-04-24T07:30:27;3.15;;;1.20;;
61322;SDS011;47203;48.428;11.974;2023-04-24T07:32:34;1.45;;;0.70;;
61322;SDS011;47203;48.428;11.974;2023-04-24T07:34:39;1.55;;;0.70;;
61322;SDS011;47203;48.428;11.974;2023-04-24T07:36:44;3.47;;;1.70;;
61322;SDS011;47203;48.428;11.974;2023-04-24T07:38:48;2.97;;;1.10;;
61322;SDS011;47203;48.428;11.974;2023-04-24T07:40:53;0.80;;;0.47;;
61322;SDS011;47203;48.428;11.974;2023-04-24T07:43:01;1.58;;;0.90;;
61322;SDS011;47203;48.428;11.974;2023-04-24T07:45:06;2.65;;;1.02;;
61322;SDS011;47203;48.428;11.974;2023-04-24T07:47:12;3.15;;;0.77;;
61322;SDS011;47203;48.428;11.974;2023-04-24T07:49:17;1.77;;;0.75;;
61322;SDS011;47203;48.428;11.974;2023-04-24T07:51:22;1.17;;;0.60;;
61322;SDS011;47203;48.428;11.974;2023-04-24T07:53:28;2.22;;;0.57;;
61322;SDS011;47203;48.428;11.974;2023-04-24T07:55:33;1.15;;;0.50;;
61322;SDS011;47203;48.428;11.974;2023-04-24T07:57:38;0.75;;;0.35;;
61322;SDS011;47203;48.428;11.974;2023-04-24T07:59:45;2.72;;;0.60;;
61322;SDS011;47203;48.428;11.974;2023-04-24T08:01:50;0.75;;;0.40;;
61322;SDS011;47203;48.428;11.974;2023-04-24T08:03:55;0.55;;;0.30;;
61322;SDS011;47203;48.428;11.974;2023-04-24T08:06:00;0.82;;;0.40;;
61322;SDS011;47203;48.428;11.974;2023-04-24T08:08:05;11.40;;;1.10;;
61322;SDS011;47203;48.428;11.974;2023-04-24T08:10:10;0.30;;;0.30;;
61322;SDS011;47203;48.428;11.974;2023-04-24T08:12:15;1.50;;;0.50;;
61322;SDS011;47203;48.428;11.974;2023-04-24T08:14:20;0.68;;;0.40;;
61322;SDS011;47203;48.428;11.974;2023-04-24T08:16:27;1.02;;;0.50;;
61322;SDS011;47203;48.428;11.974;2023-04-24T08:18:35;0.85;;;0.38;;
61322;SDS011;47203;48.428;11.974;2023-04-24T08:20:40;0.70;;;0.40;;
61322;SDS011;47203;48.428;11.974;2023-04-24T08:22:46;0.55;;;0.28;;
61322;SDS011;47203;48.428;11.974;2023-04-24T08:24:51;1.55;;;0.52;;
61322;SDS011;47203;48.428;11.974;2023-04-24T08:26:57;0.73;;;0.38;;
61322;SDS011;47203;48.428;11.974;2023-04-24T08:29:03;1.48;;;0.30;;
61322;SDS011;47203;48.428;11.974;2023-04-24T08:31:08;0.32;;;0.20;;
61322;SDS011;47203;48.428;11.974;2023-04-24T08:33:15;0.75;;;0.40;;
61322;SDS011;47203;48.428;11.974;2023-04-24T08:35:20;1.42;;;0.40;;
61322;SDS011;47203;48.428;11.974;2023-04-24T08:37:25;0.75;;;0.43;;
61322;SDS011;47203;48.428;11.974;2023-04-24T08:39:31;0.98;;;0.40;;
61322;SDS011;47203;48.428;11.974;2023-04-24T08:41:36;1.50;;;0.40;;
61322;SDS011;47203;48.428;11.974;2023-04-24T08:43:42;0.70;;;0.40;;
61322;SDS011;47203;48.428;11.974;2023-04-24T08:45:47;0.85;;;0.55;;
61322;SDS011;47203;48.428;11.974;2023-04-24T08:47:54;0.80;;;0.50;;
61322;SDS011;47203;48.428;11.974;2023-04-24T08:50:02;0.90;;;0.40;;
61322;SDS011;47203;48.428;11.974;2023-04-24T08:52:08;0.70;;;0.30;;
61322;SDS011;47203;48.428;11.974;2023-04-24T08:54:14;1.65;;;0.30;;
61322;SDS011;47203;48.428;11.974;2023-04-24T08:56:20;0.68;;;0.50;;
61322;SDS011;47203;48.428;11.974;2023-04-24T08:58:26;3.13;;;0.90;;
61322;SDS011;47203;48.428;11.974;2023-04-24T09:00:32;0.57;;;0.38;;
61322;SDS011;47203;48.428;11.974;2023-04-24T09:02:38;1.13;;;0.60;;
61322;SDS011;47203;48.428;11.974;2023-04-24T09:04:46;1.02;;;0.43;;
61322;SDS011;47203;48.428;11.974;2023-04-24T09:06:55;1.48;;;0.50;;
61322;SDS011;47203;48.428;11.974;2023-04-24T09:09:01;2.20;;;0.55;;
61322;SDS011;47203;48.428;11.974;2023-04-24T09:11:07;1.13;;;0.40;;
61322;SDS011;47203;48.428;11.974;2023-04-24T09:13:12;0.85;;;0.55;;
61322;SDS011;47203;48.428;11.974;2023-04-24T09:15:18;0.50;;;0.40;;
61322;SDS011;47203;48.428;11.974;2023-04-24T09:17:23;1.45;;;0.80;;
61322;SDS011;47203;48.428;11.974;2023-04-24T09:19:28;0.65;;;0.65;;
61322;SDS011;47203;48.428;11.974;2023-04-24T09:21:33;1.45;;;0.88;;
61322;SDS011;47203;48.428;11.974;2023-04-24T09:23:41;1.25;;;0.80;;
61322;SDS011;47203;48.428;11.974;2023-04-24T09:25:46;1.33;;;1.00;;
61322;SDS011;47203;48.428;11.974;2023-04-24T09:28:00;0.88;;;0.80;;
61322;SDS011;47203;48.428;11.974;2023-04-24T09:30:06;1.10;;;0.70;;
61322;SDS011;47203;48.428;11.974;2023-04-24T09:32:18;1.83;;;0.80;;
61322;SDS011;47203;48.428;11.974;2023-04-24T09:34:27;1.55;;;1.00;;
61322;SDS011;47203;48.428;11.974;2023-04-24T09:36:32;1.55;;;0.77;;
61322;SDS011;47203;48.428;11.974;2023-04-24T09:38:38;2.28;;;1.25;;
61322;SDS011;47203;48.428;11.974;2023-04-24T09:40:46;1.10;;;0.82;;
61322;SDS011;47203;48.428;11.974;2023-04-24T09:42:51;1.80;;;0.90;;
61322;SDS011;47203;48.428;11.974;2023-04-24T09:44:58;2.38;;;0.90;;
61322;SDS011;47203;48.428;11.974;2023-04-24T09:47:15;1.30;;;0.73;;
61322;SDS011;47203;48.428;11.974;2023-04-24T09:49:22;1.17;;;0.70;;
61322;SDS011;47203;48.428;11.974;2023-04-24T09:51:37;2.20;;;0.95;;
61322;SDS011;47203;48.428;11.974;2023-04-24T09:53:45;2.08;;;1.10;;
61322;SDS011;47203;48.428;11.974;2023-04-24T09:56:06;1.00;;;0.57;;
61322;SDS011;47203;48.428;11.974;2023-04-24T09:58:12;1.63;;;0.93;;
61322;SDS011;47203;48.428;11.974;2023-04-24T10:00:23;2.17;;;0.88;;
61322;SDS011;47203;48.428;11.974;2023-04-24T10:02:30;0.98;;;0.80;;
61322;SDS011;47203;48.428;11.974;2023-04-24T10:04:36;3.35;;;0.80;;
61322;SDS011;47203;48.428;11.974;2023-04-24T10:06:41;1.58;;;0.90;;
61322;SDS011;47203;48.428;11.974;2023-04-24T10:08:47;0.75;;;0.65;;
61322;SDS011;47203;48.428;11.974;2023-04-24T10:10:53;1.55;;;0.85;;
61322;SDS011;47203;48.428;11.974;2023-04-24T10:13:01;1.27;;;1.00;;
61322;SDS011;47203;48.428;11.974;2023-04-24T10:15:09;1.65;;;1.00;;
61322;SDS011;47203;48.428;11.974;2023-04-24T10:17:16;1.60;;;0.90;;
61322;SDS011;47203;48.428;11.974;2023-04-24T10:19:22;1.65;;;0.82;;
61322;SDS011;47203;48.428;11.974;2023-04-24T10:21:30;1.40;;;0.77;;
61322;SDS011;47203;48.428;11.974;2023-04-24T10:23:36;1.40;;;0.82;;
61322;SDS011;47203;48.428;11.974;2023-04-24T10:25:42;2.00;;;0.95;;
61322;SDS011;47203;48.428;11.974;2023-04-24T10:27:47;2.60;;;1.13;;
61322;SDS011;47203;48.428;11.974;2023-04-24T10:29:56;2.38;;;1.20;;
61322;SDS011;47203;48.428;11.974;2023-04-24T10:32:01;1.98;;;0.93;;
61322;SDS011;47203;48.428;11.974;2023-04-24T10:34:06;2.08;;;1.05;;
61322;SDS011;47203;48.428;11.974;2023-04-24T10:36:14;3.55;;;1.40;;
61322;SDS011;47203;48.428;11.974;2023-04-24T10:38:21;2.20;;;0.98;;
61322;SDS011;47203;48.428;11.974;2023-04-24T10:40:30;1.55;;;0.90;;
61322;SDS011;47203;48.428;11.974;2023-04-24T10:42:35;2.42;;;1.00;;
61322;SDS011;47203;48.428;11.974;2023-04-24T10:44:44;1.00;;;0.57;;
61322;SDS011;47203;48.428;11.974;2023-04-24T10:46:55;1.30;;;0.90;;
61322;SDS011;47203;48.428;11.974;2023-04-24T10:49:00;1.20;;;0.80;;
61322;SDS011;47203;48.428;11.974;2023-04-24T10:51:10;1.63;;;0.80;;
61322;SDS011;47203;48.428;11.974;2023-04-24T10:53:16;1.77;;;1.00;;
61322;SDS011;47203;48.428;11.974;2023-04-24T10:55:40;2.40;;;0.80;;
61322;SDS011;47203;48.428;11.974;2023-04-24T10:58:00;2.60;;;1.00;;
61322;SDS011;47203;48.428;11.974;2023-04-24T11:00:11;1.98;;;1.02;;
61322;SDS011;47203;48.428;11.974;2023-04-24T11:02:35;1.17;;;0.87;;
61322;SDS011;47203;48.428;11.974;2023-04-24T11:04:42;1.08;;;0.80;;
61322;SDS011;47203;48.428;11.974;2023-04-24T11:06:48;2.03;;;1.00;;
61322;SDS011;47203;48.428;11.974;2023-04-24T11:08:59;1.10;;;0.90;;
61322;SDS011;47203;48.428;11.974;2023-04-24T11:11:08;1.20;;;0.77;;
61322;SDS011;47203;48.428;11.974;2023-04-24T11:13:15;3.83;;;1.00;;
61322;SDS011;47203;48.428;11.974;2023-04-24T11:15:20;1.23;;;0.77;;
61322;SDS011;47203;48.428;11.974;2023-04-24T11:17:34;1.20;;;0.82;;
61322;SDS011;47203;48.428;11.974;2023-04-24T11:19:41;1.85;;;0.98;;
61322;SDS011;47203;48.428;11.974;2023-04-24T11:21:47;1.65;;;0.73;;
61322;SDS011;47203;48.428;11.974;2023-04-24T11:23:53;1.92;;;1.20;;
61322;SDS011;47203;48.428;11.974;2023-04-24T11:26:09;2.25;;;0.88;;
61322;SDS011;47203;48.428;11.974;2023-04-24T11:28:16;1.90;;;1.02;;
61322;SDS011;47203;48.428;11.974;2023-04-24T11:30:21;2.92;;;1.33;;
61322;SDS011;47203;48.428;11.974;2023-04-24T11:32:26;2.28;;;1.23;;
61322;SDS011;47203;48.428;11.974;2023-04-24T11:34:34;1.17;;;0.80;;
61322;SDS011;47203;48.428;11.974;2023-04-24T11:36:42;2.08;;;1.02;;
61322;SDS011;47203;48.428;11.974;2023-04-24T11:38:48;0.80;;;0.70;;
61322;SDS011;47203;48.428;11.974;2023-04-24T11:40:53;0.75;;;0.50;;
61322;SDS011;47203;48.428;11.974;2023-04-24T11:43:01;0.90;;;0.55;;
61322;SDS011;47203;48.428;11.974;2023-04-24T11:45:08;0.63;;;0.55;;
61322;SDS011;47203;48.428;11.974;2023-04-24T11:47:15;1.15;;;0.40;;
61322;SDS011;47203;48.428;11.974;2023-04-24T11:49:20;1.08;;;0.70;;
61322;SDS011;47203;48.428;11.974;2023-04-24T11:51:27;0.93;;;0.70;;
61322;SDS011;47203;48.428;11.974;2023-04-24T11:53:51;0.90;;;0.63;;
61322;SDS011;47203;48.428;11.974;2023-04-24T11:56:05;4.38;;;0.70;;
61322;SDS011;47203;48.428;11.974;2023-04-24T11:58:10;1.08;;;0.80;;
61322;SDS011;47203;48.428;11.974;2023-04-24T12:00:15;1.02;;;0.80;;
61322;SDS011;47203;48.428;11.974;2023-04-24T12:02:22;0.85;;;0.75;;
61322;SDS011;47203;48.428;11.974;2023-04-24T12:04:37;1.40;;;0.70;;
61322;SDS011;47203;48.428;11.974;2023-04-24T12:07:02;0.70;;;0.55;;
61322;SDS011;47203;48.428;11.974;2023-04-24T12:09:06;1.58;;;0.77;;
61322;SDS011;47203;48.428;11.974;2023-04-24T12:11:19;0.82;;;0.52;;
61322;SDS011;47203;48.428;11.974;2023-04-24T12:13:24;0.77;;;0.77;;
61322;SDS011;47203;48.428;11.974;2023-04-24T12:15:29;1.75;;;1.00;;
61322;SDS011;47203;48.428;11.974;2023-04-24T12:17:35;1.73;;;0.95;;
61322;SDS011;47203;48.428;11.974;2023-04-24T12:19:44;1.63;;;0.85;;
61322;SDS011;47203;48.428;11.974;2023-04-24T12:22:02;1.67;;;0.98;;
61322;SDS011;47203;48.428;11.974;2023-04-24T12:24:08;1.30;;;0.80;;
61322;SDS011;47203;48.428;11.974;2023-04-24T12:26:15;2.30;;;1.30;;
61322;SDS011;47203;48.428;11.974;2023-04-24T12:28:22;1.70;;;0.90;;
61322;SDS011;47203;48.428;11.974;2023-04-24T12:30:27;1.20;;;0.80;;
61322;SDS011;47203;48.428;11.974;2023-04-24T12:32:33;2.55;;;1.00;;